sensor_id;sensor_type;location;lat;lon;timestamp;P1;durP1;ratioP1;P2;durP2;ratioP2
69036;SDS011;58547;51.690;5.186;2022-09-28T00:01:35;19.80;;;13.77;;
69036;SDS011;58547;51.690;5.186;2022-09-28T00:04:01;16.53;;;12.53;;
69036;SDS011;58547;51.690;5.186;2022-09-28T00:06:27;17.20;;;13.03;;
69036;SDS011;58547;51.690;5.186;2022-09-28T00:08:54;16.20;;;11.82;;
69036;SDS011;58547;51.690;5.186;2022-09-28T00:11:21;17.27;;;12.07;;
69036;SDS011;58547;51.690;5.186;2022-09-28T00:13:48;16.60;;;11.40;;
69036;SDS011;58547;51.690;5.186;2022-09-28T00:16:20;18.33;;;11.95;;
69036;SDS011;58547;51.690;5.186;2022-09-28T00:18:47;16.27;;;11.55;;
69036;SDS011;58547;51.690;5.186;2022-09-28T00:21:17;19.45;;;11.70;;
69036;SDS011;58547;51.690;5.186;2022-09-28T00:23:45;18.85;;;10.90;;
69036;SDS011;58547;51.690;5.186;2022-09-28T00:26:30;14.48;;;10.48;;
69036;SDS011;58547;51.690;5.186;2022-09-28T00:28:58;16.33;;;11.48;;
69036;SDS011;58547;51.690;5.186;2022-09-28T00:31:28;19.10;;;10.80;;
69036;SDS011;58547;51.690;5.186;2022-09-28T00:33:56;17.20;;;11.38;;
69036;SDS011;58547;51.690;5.186;2022-09-28T00:36:23;16.55;;;11.00;;
69036;SDS011;58547;51.690;5.186;2022-09-28T00:38:50;16.92;;;10.38;;
69036;SDS011;58547;51.690;5.186;2022-09-28T00:41:16;15.57;;;10.05;;
69036;SDS011;58547;51.690;5.186;2022-09-28T00:43:41;17.20;;;11.05;;
69036;SDS011;58547;51.690;5.186;2022-09-28T00:46:14;13.57;;;10.60;;
69036;SDS011;58547;51.690;5.186;2022-09-28T00:48:54;16.48;;;10.73;;
69036;SDS011;58547;51.690;5.186;2022-09-28T00:51:22;13.75;;;9.57;;
69036;SDS011;58547;51.690;5.186;2022-09-28T00:53:50;16.70;;;10.52;;
69036;SDS011;58547;51.690;5.186;2022-09-28T00:56:17;14.90;;;10.27;;
69036;SDS011;58547;51.690;5.186;2022-09-28T00:58:46;16.27;;;10.18;;
69036;SDS011;58547;51.690;5.186;2022-09-28T01:01:14;15.70;;;10.40;;
69036;SDS011;58547;51.690;5.186;2022-09-28T01:03:40;19.70;;;10.77;;
69036;SDS011;58547;51.690;5.186;2022-09-28T01:06:09;21.17;;;11.85;;
69036;SDS011;58547;51.690;5.186;2022-09-28T01:08:37;15.07;;;10.57;;
69036;SDS011;58547;51.690;5.186;2022-09-28T01:11:03;18.92;;;10.43;;
69036;SDS011;58547;51.690;5.186;2022-09-28T01:13:29;15.00;;;9.48;;
69036;SDS011;58547;51.690;5.186;2022-09-28T01:16:13;17.17;;;9.60;;
69036;SDS011;58547;51.690;5.186;2022-09-28T01:21:27;12.53;;;9.40;;
69036;SDS011;58547;51.690;5.186;2022-09-28T01:23:59;15.13;;;9.38;;
69036;SDS011;58547;51.690;5.186;2022-09-28T01:29:31;12.00;;;8.57;;
69036;SDS011;58547;51.690;5.186;2022-09-28T01:35:14;14.52;;;10.15;;
69036;SDS011;58547;51.690;5.186;2022-09-28T01:37:49;15.45;;;8.93;;
69036;SDS011;58547;51.690;5.186;2022-09-28T01:40:19;16.30;;;11.13;;
69036;SDS011;58547;51.690;5.186;2022-09-28T01:42:47;15.32;;;9.65;;
69036;SDS011;58547;51.690;5.186;2022-09-28T01:45:19;16.35;;;10.27;;
69036;SDS011;58547;51.690;5.186;2022-09-28T01:47:49;15.40;;;10.40;;
69036;SDS011;58547;51.690;5.186;2022-09-28T01:50:20;18.75;;;11.85;;
69036;SDS011;58547;51.690;5.186;2022-09-28T01:55:30;15.68;;;10.20;;
69036;SDS011;58547;51.690;5.186;2022-09-28T01:58:14;13.30;;;9.50;;
69036;SDS011;58547;51.690;5.186;2022-09-28T02:00:47;19.25;;;8.57;;
69036;SDS011;58547;51.690;5.186;2022-09-28T02:03:18;12.55;;;8.35;;
69036;SDS011;58547;51.690;5.186;2022-09-28T02:05:50;17.42;;;10.10;;
69036;SDS011;58547;51.690;5.186;2022-09-28T02:08:28;14.15;;;8.40;;
69036;SDS011;58547;51.690;5.186;2022-09-28T02:13:39;15.13;;;10.15;;
69036;SDS011;58547;51.690;5.186;2022-09-28T02:16:19;15.68;;;10.35;;
69036;SDS011;58547;51.690;5.186;2022-09-28T02:18:49;17.30;;;9.32;;
69036;SDS011;58547;51.690;5.186;2022-09-28T02:24:02;15.98;;;9.50;;
69036;SDS011;58547;51.690;5.186;2022-09-28T02:26:34;18.27;;;10.50;;
69036;SDS011;58547;51.690;5.186;2022-09-28T02:29:05;15.70;;;9.10;;
69036;SDS011;58547;51.690;5.186;2022-09-28T02:31:31;12.27;;;7.15;;
69036;SDS011;58547;51.690;5.186;2022-09-28T02:33:56;17.27;;;8.75;;
69036;SDS011;58547;51.690;5.186;2022-09-28T02:36:23;13.93;;;7.93;;
69036;SDS011;58547;51.690;5.186;2022-09-28T02:38:51;15.32;;;7.95;;
69036;SDS011;58547;51.690;5.186;2022-09-28T02:41:25;12.02;;;6.50;;
69036;SDS011;58547;51.690;5.186;2022-09-28T02:44:06;12.73;;;7.60;;
69036;SDS011;58547;51.690;5.186;2022-09-28T02:49:45;12.63;;;5.30;;
69036;SDS011;58547;51.690;5.186;2022-09-28T02:55:23;8.27;;;4.20;;
69036;SDS011;58547;51.690;5.186;2022-09-28T02:58:12;8.98;;;3.47;;
69036;SDS011;58547;51.690;5.186;2022-09-28T03:06:22;5.68;;;2.70;;
69036;SDS011;58547;51.690;5.186;2022-09-28T03:09:05;6.63;;;2.57;;
69036;SDS011;58547;51.690;5.186;2022-09-28T03:11:45;5.45;;;2.90;;
69036;SDS011;58547;51.690;5.186;2022-09-28T03:14:15;6.28;;;2.60;;
69036;SDS011;58547;51.690;5.186;2022-09-28T03:16:42;5.85;;;2.35;;
69036;SDS011;58547;51.690;5.186;2022-09-28T03:19:10;5.22;;;2.25;;
69036;SDS011;58547;51.690;5.186;2022-09-28T03:21:40;5.38;;;2.33;;
69036;SDS011;58547;51.690;5.186;2022-09-28T03:24:05;3.37;;;1.97;;
69036;SDS011;58547;51.690;5.186;2022-09-28T03:26:31;5.32;;;2.05;;
69036;SDS011;58547;51.690;5.186;2022-09-28T03:28:57;6.57;;;2.35;;
69036;SDS011;58547;51.690;5.186;2022-09-28T03:31:22;3.27;;;1.73;;
69036;SDS011;58547;51.690;5.186;2022-09-28T03:33:48;3.30;;;2.00;;
69036;SDS011;58547;51.690;5.186;2022-09-28T03:36:15;5.32;;;1.98;;
69036;SDS011;58547;51.690;5.186;2022-09-28T03:38:40;7.27;;;2.03;;
69036;SDS011;58547;51.690;5.186;2022-09-28T03:41:05;4.57;;;2.03;;
69036;SDS011;58547;51.690;5.186;2022-09-28T03:43:32;4.25;;;2.38;;
69036;SDS011;58547;51.690;5.186;2022-09-28T03:45:58;6.03;;;2.85;;
69036;SDS011;58547;51.690;5.186;2022-09-28T03:48:25;4.47;;;2.22;;
69036;SDS011;58547;51.690;5.186;2022-09-28T03:50:52;5.53;;;2.78;;
69036;SDS011;58547;51.690;5.186;2022-09-28T03:53:19;7.03;;;2.90;;
69036;SDS011;58547;51.690;5.186;2022-09-28T03:55:44;4.80;;;2.50;;
69036;SDS011;58547;51.690;5.186;2022-09-28T03:58:09;6.40;;;2.63;;
69036;SDS011;58547;51.690;5.186;2022-09-28T04:00:36;8.60;;;2.70;;
69036;SDS011;58547;51.690;5.186;2022-09-28T04:03:02;2.72;;;2.22;;
69036;SDS011;58547;51.690;5.186;2022-09-28T04:05:28;3.38;;;2.28;;
69036;SDS011;58547;51.690;5.186;2022-09-28T04:07:53;6.53;;;2.72;;
69036;SDS011;58547;51.690;5.186;2022-09-28T04:10:20;3.70;;;2.47;;
69036;SDS011;58547;51.690;5.186;2022-09-28T04:12:45;3.07;;;2.03;;
69036;SDS011;58547;51.690;5.186;2022-09-28T04:15:10;3.07;;;2.23;;
69036;SDS011;58547;51.690;5.186;2022-09-28T04:17:36;4.97;;;2.43;;
69036;SDS011;58547;51.690;5.186;2022-09-28T04:20:02;6.18;;;2.30;;
69036;SDS011;58547;51.690;5.186;2022-09-28T04:22:28;2.72;;;2.25;;
69036;SDS011;58547;51.690;5.186;2022-09-28T04:24:54;6.70;;;2.10;;
69036;SDS011;58547;51.690;5.186;2022-09-28T04:27:19;4.13;;;1.60;;
69036;SDS011;58547;51.690;5.186;2022-09-28T04:30:03;3.03;;;1.63;;
69036;SDS011;58547;51.690;5.186;2022-09-28T04:32:29;5.63;;;1.85;;
69036;SDS011;58547;51.690;5.186;2022-09-28T04:34:54;3.03;;;1.37;;
69036;SDS011;58547;51.690;5.186;2022-09-28T04:37:19;5.47;;;1.52;;
69036;SDS011;58547;51.690;5.186;2022-09-28T04:39:45;2.63;;;1.43;;
69036;SDS011;58547;51.690;5.186;2022-09-28T04:42:10;2.27;;;1.70;;
69036;SDS011;58547;51.690;5.186;2022-09-28T04:44:35;8.30;;;2.05;;
69036;SDS011;58547;51.690;5.186;2022-09-28T04:47:01;4.63;;;1.87;;
69036;SDS011;58547;51.690;5.186;2022-09-28T04:49:26;5.03;;;2.17;;
69036;SDS011;58547;51.690;5.186;2022-09-28T04:51:51;5.47;;;1.63;;
69036;SDS011;58547;51.690;5.186;2022-09-28T04:54:17;6.90;;;1.80;;
69036;SDS011;58547;51.690;5.186;2022-09-28T04:56:42;5.43;;;1.75;;
69036;SDS011;58547;51.690;5.186;2022-09-28T04:59:07;7.73;;;1.97;;
69036;SDS011;58547;51.690;5.186;2022-09-28T05:01:33;2.45;;;1.63;;
69036;SDS011;58547;51.690;5.186;2022-09-28T05:03:59;5.33;;;1.87;;
69036;SDS011;58547;51.690;5.186;2022-09-28T05:06:24;4.30;;;1.80;;
69036;SDS011;58547;51.690;5.186;2022-09-28T05:08:52;10.57;;;1.98;;
69036;SDS011;58547;51.690;5.186;2022-09-28T05:11:21;4.03;;;1.58;;
69036;SDS011;58547;51.690;5.186;2022-09-28T05:13:46;2.72;;;1.92;;
69036;SDS011;58547;51.690;5.186;2022-09-28T05:16:13;4.65;;;1.80;;
69036;SDS011;58547;51.690;5.186;2022-09-28T05:18:42;16.77;;;2.42;;
69036;SDS011;58547;51.690;5.186;2022-09-28T05:21:11;4.88;;;1.75;;
69036;SDS011;58547;51.690;5.186;2022-09-28T05:23:38;6.55;;;2.15;;
69036;SDS011;58547;51.690;5.186;2022-09-28T05:26:04;9.38;;;2.20;;
69036;SDS011;58547;51.690;5.186;2022-09-28T05:28:31;9.00;;;3.20;;
69036;SDS011;58547;51.690;5.186;2022-09-28T05:30:58;3.90;;;1.63;;
69036;SDS011;58547;51.690;5.186;2022-09-28T05:33:24;4.80;;;1.77;;
69036;SDS011;58547;51.690;5.186;2022-09-28T05:35:50;4.35;;;1.83;;
69036;SDS011;58547;51.690;5.186;2022-09-28T05:38:15;3.87;;;1.53;;
69036;SDS011;58547;51.690;5.186;2022-09-28T05:40:40;3.10;;;1.77;;
69036;SDS011;58547;51.690;5.186;2022-09-28T05:43:06;10.73;;;2.20;;
69036;SDS011;58547;51.690;5.186;2022-09-28T05:45:31;8.07;;;2.83;;
69036;SDS011;58547;51.690;5.186;2022-09-28T05:47:56;8.33;;;2.07;;
69036;SDS011;58547;51.690;5.186;2022-09-28T05:50:22;4.50;;;1.77;;
69036;SDS011;58547;51.690;5.186;2022-09-28T05:52:55;4.00;;;2.10;;
69036;SDS011;58547;51.690;5.186;2022-09-28T05:55:25;6.97;;;2.20;;
69036;SDS011;58547;51.690;5.186;2022-09-28T05:57:51;2.58;;;1.75;;
69036;SDS011;58547;51.690;5.186;2022-09-28T06:00:16;7.30;;;3.60;;
69036;SDS011;58547;51.690;5.186;2022-09-28T06:02:42;3.72;;;2.30;;
69036;SDS011;58547;51.690;5.186;2022-09-28T06:05:07;6.30;;;2.70;;
69036;SDS011;58547;51.690;5.186;2022-09-28T06:07:32;7.40;;;3.80;;
69036;SDS011;58547;51.690;5.186;2022-09-28T06:09:58;4.80;;;2.23;;
69036;SDS011;58547;51.690;5.186;2022-09-28T06:12:23;8.68;;;6.07;;
69036;SDS011;58547;51.690;5.186;2022-09-28T06:14:49;6.47;;;2.80;;
69036;SDS011;58547;51.690;5.186;2022-09-28T06:17:15;10.07;;;3.37;;
69036;SDS011;58547;51.690;5.186;2022-09-28T06:19:40;9.02;;;3.33;;
69036;SDS011;58547;51.690;5.186;2022-09-28T06:22:06;5.40;;;3.37;;
69036;SDS011;58547;51.690;5.186;2022-09-28T06:24:31;4.43;;;2.40;;
69036;SDS011;58547;51.690;5.186;2022-09-28T06:26:56;9.07;;;4.77;;
69036;SDS011;58547;51.690;5.186;2022-09-28T06:29:22;8.40;;;3.47;;
69036;SDS011;58547;51.690;5.186;2022-09-28T06:31:47;5.32;;;3.10;;
69036;SDS011;58547;51.690;5.186;2022-09-28T06:34:12;5.27;;;3.10;;
69036;SDS011;58547;51.690;5.186;2022-09-28T06:36:38;6.10;;;3.33;;
69036;SDS011;58547;51.690;5.186;2022-09-28T06:39:04;8.02;;;5.10;;
69036;SDS011;58547;51.690;5.186;2022-09-28T06:41:30;7.95;;;2.78;;
69036;SDS011;58547;51.690;5.186;2022-09-28T06:43:56;3.42;;;2.63;;
69036;SDS011;58547;51.690;5.186;2022-09-28T06:46:21;6.97;;;2.67;;
69036;SDS011;58547;51.690;5.186;2022-09-28T06:48:50;8.33;;;3.20;;
69036;SDS011;58547;51.690;5.186;2022-09-28T06:51:15;7.18;;;3.72;;
69036;SDS011;58547;51.690;5.186;2022-09-28T06:53:40;7.27;;;2.97;;
69036;SDS011;58547;51.690;5.186;2022-09-28T06:56:09;4.63;;;3.35;;
69036;SDS011;58547;51.690;5.186;2022-09-28T06:58:38;6.78;;;2.70;;
69036;SDS011;58547;51.690;5.186;2022-09-28T07:01:03;5.93;;;2.87;;
69036;SDS011;58547;51.690;5.186;2022-09-28T07:03:29;7.97;;;2.80;;
69036;SDS011;58547;51.690;5.186;2022-09-28T07:05:54;6.67;;;3.13;;
69036;SDS011;58547;51.690;5.186;2022-09-28T07:08:24;5.65;;;3.28;;
69036;SDS011;58547;51.690;5.186;2022-09-28T07:10:51;6.97;;;4.35;;
69036;SDS011;58547;51.690;5.186;2022-09-28T07:13:20;7.70;;;2.72;;
69036;SDS011;58547;51.690;5.186;2022-09-28T07:15:47;9.70;;;3.60;;
69036;SDS011;58547;51.690;5.186;2022-09-28T07:18:12;8.73;;;3.00;;
69036;SDS011;58547;51.690;5.186;2022-09-28T07:20:37;14.37;;;3.77;;
69036;SDS011;58547;51.690;5.186;2022-09-28T07:23:03;6.07;;;2.83;;
69036;SDS011;58547;51.690;5.186;2022-09-28T07:25:31;10.55;;;4.45;;
69036;SDS011;58547;51.690;5.186;2022-09-28T07:28:00;14.40;;;3.83;;
69036;SDS011;58547;51.690;5.186;2022-09-28T07:30:27;8.45;;;4.20;;
69036;SDS011;58547;51.690;5.186;2022-09-28T07:32:57;8.55;;;2.95;;
69036;SDS011;58547;51.690;5.186;2022-09-28T07:35:25;7.72;;;4.05;;
69036;SDS011;58547;51.690;5.186;2022-09-28T07:37:56;9.68;;;3.15;;
69036;SDS011;58547;51.690;5.186;2022-09-28T07:40:24;6.00;;;2.70;;
69036;SDS011;58547;51.690;5.186;2022-09-28T07:43:09;14.23;;;5.23;;
69036;SDS011;58547;51.690;5.186;2022-09-28T07:45:34;6.07;;;3.37;;
69036;SDS011;58547;51.690;5.186;2022-09-28T07:48:00;5.22;;;3.47;;
69036;SDS011;58547;51.690;5.186;2022-09-28T07:50:25;5.60;;;3.22;;
69036;SDS011;58547;51.690;5.186;2022-09-28T07:52:50;4.70;;;3.13;;
69036;SDS011;58547;51.690;5.186;2022-09-28T07:55:16;10.20;;;4.23;;
69036;SDS011;58547;51.690;5.186;2022-09-28T07:57:41;7.50;;;3.40;;
69036;SDS011;58547;51.690;5.186;2022-09-28T08:00:07;6.80;;;3.28;;
69036;SDS011;58547;51.690;5.186;2022-09-28T08:02:33;7.32;;;2.65;;
69036;SDS011;58547;51.690;5.186;2022-09-28T08:05:01;5.68;;;2.55;;
69036;SDS011;58547;51.690;5.186;2022-09-28T08:07:26;8.18;;;4.07;;
69036;SDS011;58547;51.690;5.186;2022-09-28T08:09:52;5.65;;;3.33;;
69036;SDS011;58547;51.690;5.186;2022-09-28T08:12:17;12.07;;;4.85;;
69036;SDS011;58547;51.690;5.186;2022-09-28T08:17:09;5.68;;;3.47;;
69036;SDS011;58547;51.690;5.186;2022-09-28T08:19:34;11.90;;;4.60;;
69036;SDS011;58547;51.690;5.186;2022-09-28T08:22:18;8.70;;;3.88;;
69036;SDS011;58547;51.690;5.186;2022-09-28T08:24:44;10.40;;;4.38;;
69036;SDS011;58547;51.690;5.186;2022-09-28T08:27:10;14.65;;;5.82;;
69036;SDS011;58547;51.690;5.186;2022-09-28T08:29:37;14.75;;;5.47;;
69036;SDS011;58547;51.690;5.186;2022-09-28T08:32:02;17.45;;;8.02;;
69036;SDS011;58547;51.690;5.186;2022-09-28T08:34:30;8.63;;;3.65;;
69036;SDS011;58547;51.690;5.186;2022-09-28T08:36:55;11.03;;;4.23;;
69036;SDS011;58547;51.690;5.186;2022-09-28T08:39:21;5.88;;;2.65;;
69036;SDS011;58547;51.690;5.186;2022-09-28T08:41:47;4.60;;;2.88;;
69036;SDS011;58547;51.690;5.186;2022-09-28T08:44:24;8.07;;;4.45;;
69036;SDS011;58547;51.690;5.186;2022-09-28T08:47:12;8.32;;;3.15;;
69036;SDS011;58547;51.690;5.186;2022-09-28T08:50:06;5.18;;;3.00;;
69036;SDS011;58547;51.690;5.186;2022-09-28T08:52:40;6.43;;;2.53;;
69036;SDS011;58547;51.690;5.186;2022-09-28T08:55:16;3.30;;;2.30;;
69036;SDS011;58547;51.690;5.186;2022-09-28T08:57:52;5.03;;;2.00;;
69036;SDS011;58547;51.690;5.186;2022-09-28T09:00:34;4.40;;;1.95;;
69036;SDS011;58547;51.690;5.186;2022-09-28T09:03:31;10.45;;;2.72;;
69036;SDS011;58547;51.690;5.186;2022-09-28T09:08:40;9.32;;;3.10;;
69036;SDS011;58547;51.690;5.186;2022-09-28T09:21:50;6.78;;;2.05;;
69036;SDS011;58547;51.690;5.186;2022-09-28T09:24:25;3.60;;;2.60;;
69036;SDS011;58547;51.690;5.186;2022-09-28T09:27:00;6.80;;;3.35;;
69036;SDS011;58547;51.690;5.186;2022-09-28T09:29:39;6.78;;;3.33;;
69036;SDS011;58547;51.690;5.186;2022-09-28T09:35:38;5.70;;;3.55;;
69036;SDS011;58547;51.690;5.186;2022-09-28T09:38:50;7.90;;;2.83;;
69036;SDS011;58547;51.690;5.186;2022-09-28T09:46:50;9.02;;;2.58;;
69036;SDS011;58547;51.690;5.186;2022-09-28T09:49:35;7.97;;;3.00;;
69036;SDS011;58547;51.690;5.186;2022-09-28T09:54:46;9.23;;;2.33;;
69036;SDS011;58547;51.690;5.186;2022-09-28T09:57:23;5.75;;;1.80;;
69036;SDS011;58547;51.690;5.186;2022-09-28T09:59:55;4.68;;;1.70;;
69036;SDS011;58547;51.690;5.186;2022-09-28T10:02:30;2.95;;;1.15;;
69036;SDS011;58547;51.690;5.186;2022-09-28T10:05:00;8.98;;;1.98;;
69036;SDS011;58547;51.690;5.186;2022-09-28T10:07:38;3.80;;;1.10;;
69036;SDS011;58547;51.690;5.186;2022-09-28T10:10:11;3.83;;;1.23;;
69036;SDS011;58547;51.690;5.186;2022-09-28T10:12:43;3.67;;;1.30;;
69036;SDS011;58547;51.690;5.186;2022-09-28T10:17:39;3.65;;;1.25;;
69036;SDS011;58547;51.690;5.186;2022-09-28T10:22:30;3.90;;;1.02;;
69036;SDS011;58547;51.690;5.186;2022-09-28T10:27:24;2.50;;;0.90;;
69036;SDS011;58547;51.690;5.186;2022-09-28T10:30:29;2.70;;;1.23;;
69036;SDS011;58547;51.690;5.186;2022-09-28T10:32:50;10.00;;;2.03;;
69036;SDS011;58547;51.690;5.186;2022-09-28T10:37:50;2.58;;;1.10;;
69036;SDS011;58547;51.690;5.186;2022-09-28T10:40:39;2.05;;;1.08;;
69036;SDS011;58547;51.690;5.186;2022-09-28T10:43:25;7.10;;;2.03;;
69036;SDS011;58547;51.690;5.186;2022-09-28T10:46:04;2.60;;;1.20;;
69036;SDS011;58547;51.690;5.186;2022-09-28T10:51:17;4.85;;;1.40;;
69036;SDS011;58547;51.690;5.186;2022-09-28T10:56:22;1.30;;;1.00;;
69036;SDS011;58547;51.690;5.186;2022-09-28T10:58:52;4.93;;;1.25;;
69036;SDS011;58547;51.690;5.186;2022-09-28T11:08:57;8.43;;;1.33;;
69036;SDS011;58547;51.690;5.186;2022-09-28T11:11:25;3.63;;;1.20;;
69036;SDS011;58547;51.690;5.186;2022-09-28T11:16:19;6.90;;;1.65;;
69036;SDS011;58547;51.690;5.186;2022-09-28T11:21:55;5.25;;;1.60;;
69036;SDS011;58547;51.690;5.186;2022-09-28T11:24:21;4.43;;;2.53;;
69036;SDS011;58547;51.690;5.186;2022-09-28T11:26:51;3.15;;;0.93;;
69036;SDS011;58547;51.690;5.186;2022-09-28T11:29:33;2.92;;;0.90;;
69036;SDS011;58547;51.690;5.186;2022-09-28T11:32:02;4.95;;;1.35;;
69036;SDS011;58547;51.690;5.186;2022-09-28T11:34:34;9.20;;;1.55;;
69036;SDS011;58547;51.690;5.186;2022-09-28T11:39:53;3.33;;;1.00;;
69036;SDS011;58547;51.690;5.186;2022-09-28T11:45:31;15.45;;;6.88;;
69036;SDS011;58547;51.690;5.186;2022-09-28T11:48:22;4.50;;;1.20;;
69036;SDS011;58547;51.690;5.186;2022-09-28T11:50:59;4.38;;;1.00;;
69036;SDS011;58547;51.690;5.186;2022-09-28T11:56:22;3.75;;;1.85;;
69036;SDS011;58547;51.690;5.186;2022-09-28T11:58:52;3.15;;;0.88;;
69036;SDS011;58547;51.690;5.186;2022-09-28T12:01:26;1.75;;;0.80;;
69036;SDS011;58547;51.690;5.186;2022-09-28T12:04:07;2.83;;;0.90;;
69036;SDS011;58547;51.690;5.186;2022-09-28T12:09:59;3.50;;;1.38;;
69036;SDS011;58547;51.690;5.186;2022-09-28T12:15:32;3.28;;;2.00;;
69036;SDS011;58547;51.690;5.186;2022-09-28T12:18:26;4.13;;;1.20;;
69036;SDS011;58547;51.690;5.186;2022-09-28T12:21:44;3.72;;;1.30;;
69036;SDS011;58547;51.690;5.186;2022-09-28T12:24:01;3.72;;;0.90;;
69036;SDS011;58547;51.690;5.186;2022-09-28T12:26:41;2.53;;;1.13;;
69036;SDS011;58547;51.690;5.186;2022-09-28T12:29:13;3.60;;;0.90;;
69036;SDS011;58547;51.690;5.186;2022-09-28T12:34:39;2.40;;;0.60;;
69036;SDS011;58547;51.690;5.186;2022-09-28T12:37:07;1.95;;;0.90;;
69036;SDS011;58547;51.690;5.186;2022-09-28T12:56:15;7.35;;;2.17;;
69036;SDS011;58547;51.690;5.186;2022-09-28T12:58:50;5.35;;;2.50;;
69036;SDS011;58547;51.690;5.186;2022-09-28T13:03:59;5.38;;;1.80;;
69036;SDS011;58547;51.690;5.186;2022-09-28T13:09:23;5.10;;;1.88;;
69036;SDS011;58547;51.690;5.186;2022-09-28T13:11:54;6.63;;;2.72;;
69036;SDS011;58547;51.690;5.186;2022-09-28T13:25:21;3.30;;;1.60;;
69036;SDS011;58547;51.690;5.186;2022-09-28T13:27:55;4.20;;;1.45;;
69036;SDS011;58547;51.690;5.186;2022-09-28T13:30:24;1.48;;;0.85;;
69036;SDS011;58547;51.690;5.186;2022-09-28T13:35:18;4.45;;;1.67;;
69036;SDS011;58547;51.690;5.186;2022-09-28T13:40:09;3.70;;;1.20;;
69036;SDS011;58547;51.690;5.186;2022-09-28T13:48:02;1.73;;;1.08;;
69036;SDS011;58547;51.690;5.186;2022-09-28T13:56:20;2.65;;;0.98;;
69036;SDS011;58547;51.690;5.186;2022-09-28T13:58:53;2.38;;;0.90;;
69036;SDS011;58547;51.690;5.186;2022-09-28T14:01:30;3.33;;;1.27;;
69036;SDS011;58547;51.690;5.186;2022-09-28T14:04:19;4.07;;;1.33;;
69036;SDS011;58547;51.690;5.186;2022-09-28T14:07:15;3.05;;;1.48;;
69036;SDS011;58547;51.690;5.186;2022-09-28T14:09:46;2.28;;;1.38;;
69036;SDS011;58547;51.690;5.186;2022-09-28T14:14:59;2.00;;;1.10;;
69036;SDS011;58547;51.690;5.186;2022-09-28T14:25:40;1.80;;;0.90;;
69036;SDS011;58547;51.690;5.186;2022-09-28T14:30:59;6.20;;;1.33;;
69036;SDS011;58547;51.690;5.186;2022-09-28T14:33:32;1.70;;;0.88;;
69036;SDS011;58547;51.690;5.186;2022-09-28T14:38:30;0.43;;;0.43;;
69036;SDS011;58547;51.690;5.186;2022-09-28T14:41:26;0.95;;;0.40;;
69036;SDS011;58547;51.690;5.186;2022-09-28T14:44:04;0.43;;;0.30;;
69036;SDS011;58547;51.690;5.186;2022-09-28T14:59:19;2.90;;;0.60;;
69036;SDS011;58547;51.690;5.186;2022-09-28T15:01:52;0.55;;;0.45;;
69036;SDS011;58547;51.690;5.186;2022-09-28T15:04:26;4.13;;;0.50;;
69036;SDS011;58547;51.690;5.186;2022-09-28T15:06:53;1.45;;;1.35;;
69036;SDS011;58547;51.690;5.186;2022-09-28T15:12:01;1.00;;;0.60;;
69036;SDS011;58547;51.690;5.186;2022-09-28T15:14:28;0.75;;;0.43;;
69036;SDS011;58547;51.690;5.186;2022-09-28T15:16:59;0.85;;;0.68;;
69036;SDS011;58547;51.690;5.186;2022-09-28T15:19:34;0.38;;;0.30;;
69036;SDS011;58547;51.690;5.186;2022-09-28T15:22:17;0.38;;;0.20;;
69036;SDS011;58547;51.690;5.186;2022-09-28T15:24:45;2.53;;;0.93;;
69036;SDS011;58547;51.690;5.186;2022-09-28T15:27:18;1.45;;;0.30;;
69036;SDS011;58547;51.690;5.186;2022-09-28T15:32:38;1.23;;;0.30;;
69036;SDS011;58547;51.690;5.186;2022-09-28T15:35:37;2.20;;;0.52;;
69036;SDS011;58547;51.690;5.186;2022-09-28T15:37:55;0.77;;;0.32;;
69036;SDS011;58547;51.690;5.186;2022-09-28T15:42:53;2.67;;;0.60;;
69036;SDS011;58547;51.690;5.186;2022-09-28T15:47:53;0.50;;;0.50;;
69036;SDS011;58547;51.690;5.186;2022-09-28T15:50:27;2.17;;;0.68;;
69036;SDS011;58547;51.690;5.186;2022-09-28T15:52:56;1.10;;;0.88;;
69036;SDS011;58547;51.690;5.186;2022-09-28T15:55:32;1.02;;;0.60;;
69036;SDS011;58547;51.690;5.186;2022-09-28T16:00:44;0.68;;;0.43;;
69036;SDS011;58547;51.690;5.186;2022-09-28T16:11:05;2.03;;;0.57;;
69036;SDS011;58547;51.690;5.186;2022-09-28T16:13:41;1.25;;;0.28;;
69036;SDS011;58547;51.690;5.186;2022-09-28T16:16:34;1.33;;;0.43;;
69036;SDS011;58547;51.690;5.186;2022-09-28T16:19:02;1.67;;;0.70;;
69036;SDS011;58547;51.690;5.186;2022-09-28T16:24:16;0.85;;;0.45;;
69036;SDS011;58547;51.690;5.186;2022-09-28T16:26:44;1.73;;;0.73;;
69036;SDS011;58547;51.690;5.186;2022-09-28T16:31:50;0.95;;;0.45;;
69036;SDS011;58547;51.690;5.186;2022-09-28T16:34:23;0.40;;;0.30;;
69036;SDS011;58547;51.690;5.186;2022-09-28T16:36:50;0.93;;;0.40;;
69036;SDS011;58547;51.690;5.186;2022-09-28T16:44:24;0.40;;;0.40;;
69036;SDS011;58547;51.690;5.186;2022-09-28T16:46:52;0.73;;;0.40;;
69036;SDS011;58547;51.690;5.186;2022-09-28T16:49:20;0.57;;;0.40;;
69036;SDS011;58547;51.690;5.186;2022-09-28T16:51:47;1.60;;;0.50;;
69036;SDS011;58547;51.690;5.186;2022-09-28T16:59:24;4.30;;;1.30;;
69036;SDS011;58547;51.690;5.186;2022-09-28T17:01:49;3.85;;;1.63;;
69036;SDS011;58547;51.690;5.186;2022-09-28T17:04:15;2.75;;;1.33;;
69036;SDS011;58547;51.690;5.186;2022-09-28T17:09:07;3.35;;;1.38;;
69036;SDS011;58547;51.690;5.186;2022-09-28T17:11:35;1.38;;;0.85;;
69036;SDS011;58547;51.690;5.186;2022-09-28T17:16:28;2.38;;;0.55;;
69036;SDS011;58547;51.690;5.186;2022-09-28T17:18:55;3.22;;;0.77;;
69036;SDS011;58547;51.690;5.186;2022-09-28T17:21:20;1.70;;;0.60;;
69036;SDS011;58547;51.690;5.186;2022-09-28T17:23:46;3.03;;;0.70;;
69036;SDS011;58547;51.690;5.186;2022-09-28T17:26:17;3.10;;;0.73;;
69036;SDS011;58547;51.690;5.186;2022-09-28T17:28:58;3.83;;;1.25;;
69036;SDS011;58547;51.690;5.186;2022-09-28T17:31:24;2.22;;;0.63;;
69036;SDS011;58547;51.690;5.186;2022-09-28T17:36:16;2.30;;;0.70;;
69036;SDS011;58547;51.690;5.186;2022-09-28T17:38:43;1.52;;;0.65;;
69036;SDS011;58547;51.690;5.186;2022-09-28T17:41:10;0.70;;;0.40;;
69036;SDS011;58547;51.690;5.186;2022-09-28T17:43:40;2.25;;;0.50;;
69036;SDS011;58547;51.690;5.186;2022-09-28T17:46:06;2.80;;;0.60;;
69036;SDS011;58547;51.690;5.186;2022-09-28T17:48:53;1.20;;;0.52;;
69036;SDS011;58547;51.690;5.186;2022-09-28T17:51:23;2.00;;;0.80;;
69036;SDS011;58547;51.690;5.186;2022-09-28T17:53:48;1.20;;;0.60;;
69036;SDS011;58547;51.690;5.186;2022-09-28T17:56:14;1.85;;;0.70;;
69036;SDS011;58547;51.690;5.186;2022-09-28T17:58:39;1.67;;;0.60;;
69036;SDS011;58547;51.690;5.186;2022-09-28T18:01:04;1.73;;;0.70;;
69036;SDS011;58547;51.690;5.186;2022-09-28T18:03:30;1.95;;;0.75;;
69036;SDS011;58547;51.690;5.186;2022-09-28T18:06:00;1.73;;;0.55;;
69036;SDS011;58547;51.690;5.186;2022-09-28T18:08:28;2.72;;;0.70;;
69036;SDS011;58547;51.690;5.186;2022-09-28T18:10:54;2.13;;;0.80;;
69036;SDS011;58547;51.690;5.186;2022-09-28T18:13:20;5.05;;;0.73;;
69036;SDS011;58547;51.690;5.186;2022-09-28T18:15:48;1.75;;;0.73;;
69036;SDS011;58547;51.690;5.186;2022-09-28T18:18:15;0.65;;;0.57;;
69036;SDS011;58547;51.690;5.186;2022-09-28T18:20:40;2.10;;;0.70;;
69036;SDS011;58547;51.690;5.186;2022-09-28T18:23:06;2.25;;;0.60;;
69036;SDS011;58547;51.690;5.186;2022-09-28T18:25:31;1.05;;;0.80;;
69036;SDS011;58547;51.690;5.186;2022-09-28T18:27:56;0.55;;;0.50;;
69036;SDS011;58547;51.690;5.186;2022-09-28T18:30:24;2.30;;;0.77;;
69036;SDS011;58547;51.690;5.186;2022-09-28T18:35:15;2.83;;;1.25;;
69036;SDS011;58547;51.690;5.186;2022-09-28T18:37:40;3.58;;;1.23;;
69036;SDS011;58547;51.690;5.186;2022-09-28T18:40:07;2.10;;;1.20;;
69036;SDS011;58547;51.690;5.186;2022-09-28T18:42:33;2.67;;;1.00;;
69036;SDS011;58547;51.690;5.186;2022-09-28T18:44:59;3.83;;;1.00;;
69036;SDS011;58547;51.690;5.186;2022-09-28T18:49:51;2.42;;;0.88;;